sensor_id;sensor_type;location;lat;lon;timestamp;P1;durP1;ratioP1;P2;durP2;ratioP2
62788;SDS011;66401;42.016;21.454;2023-02-15T00:01:43;36.50;;;20.90;;
62788;SDS011;66401;42.016;21.454;2023-02-15T00:04:08;35.70;;;20.00;;
62788;SDS011;66401;42.016;21.454;2023-02-15T00:06:35;41.40;;;22.73;;
62788;SDS011;66401;42.016;21.454;2023-02-15T00:09:01;49.50;;;26.87;;
62788;SDS011;66401;42.016;21.454;2023-02-15T00:11:28;52.80;;;26.60;;
62788;SDS011;66401;42.016;21.454;2023-02-15T00:14:06;52.83;;;27.97;;
62788;SDS011;66401;42.016;21.454;2023-02-15T00:16:37;40.87;;;23.33;;
62788;SDS011;66401;42.016;21.454;2023-02-15T00:19:03;42.93;;;21.60;;
62788;SDS011;66401;42.016;21.454;2023-02-15T00:21:30;38.03;;;21.10;;
62788;SDS011;66401;42.016;21.454;2023-02-15T00:23:57;33.17;;;17.43;;
62788;SDS011;66401;42.016;21.454;2023-02-15T00:26:24;31.57;;;16.93;;
62788;SDS011;66401;42.016;21.454;2023-02-15T00:28:50;28.00;;;15.83;;
62788;SDS011;66401;42.016;21.454;2023-02-15T00:31:16;28.83;;;15.40;;
62788;SDS011;66401;42.016;21.454;2023-02-15T00:33:42;24.73;;;14.43;;
62788;SDS011;66401;42.016;21.454;2023-02-15T00:36:08;29.67;;;16.40;;
62788;SDS011;66401;42.016;21.454;2023-02-15T00:38:34;30.77;;;16.40;;
62788;SDS011;66401;42.016;21.454;2023-02-15T00:41:01;30.23;;;16.57;;
62788;SDS011;66401;42.016;21.454;2023-02-15T00:43:29;29.10;;;16.13;;
62788;SDS011;66401;42.016;21.454;2023-02-15T00:45:56;28.17;;;14.50;;
62788;SDS011;66401;42.016;21.454;2023-02-15T00:48:22;32.53;;;18.33;;
62788;SDS011;66401;42.016;21.454;2023-02-15T00:50:48;36.47;;;17.60;;
62788;SDS011;66401;42.016;21.454;2023-02-15T00:53:16;32.83;;;16.97;;
62788;SDS011;66401;42.016;21.454;2023-02-15T00:55:42;28.63;;;16.23;;
62788;SDS011;66401;42.016;21.454;2023-02-15T00:58:08;27.23;;;14.63;;
62788;SDS011;66401;42.016;21.454;2023-02-15T01:00:34;29.30;;;16.40;;
62788;SDS011;66401;42.016;21.454;2023-02-15T01:03:00;29.70;;;16.17;;
62788;SDS011;66401;42.016;21.454;2023-02-15T01:05:26;29.40;;;16.00;;
62788;SDS011;66401;42.016;21.454;2023-02-15T01:07:52;25.73;;;13.90;;
62788;SDS011;66401;42.016;21.454;2023-02-15T01:10:17;27.23;;;15.00;;
62788;SDS011;66401;42.016;21.454;2023-02-15T01:12:43;30.63;;;16.40;;
62788;SDS011;66401;42.016;21.454;2023-02-15T01:15:09;29.53;;;16.87;;
62788;SDS011;66401;42.016;21.454;2023-02-15T01:17:34;32.57;;;16.90;;
62788;SDS011;66401;42.016;21.454;2023-02-15T01:20:00;36.27;;;17.37;;
62788;SDS011;66401;42.016;21.454;2023-02-15T01:22:26;29.97;;;15.90;;
62788;SDS011;66401;42.016;21.454;2023-02-15T01:24:51;31.50;;;16.90;;
62788;SDS011;66401;42.016;21.454;2023-02-15T01:27:17;33.10;;;17.93;;
62788;SDS011;66401;42.016;21.454;2023-02-15T01:29:43;33.43;;;15.97;;
62788;SDS011;66401;42.016;21.454;2023-02-15T01:32:08;31.93;;;16.17;;
62788;SDS011;66401;42.016;21.454;2023-02-15T01:34:34;32.30;;;15.93;;
62788;SDS011;66401;42.016;21.454;2023-02-15T01:37:00;30.40;;;15.33;;
62788;SDS011;66401;42.016;21.454;2023-02-15T01:39:25;28.13;;;15.37;;
62788;SDS011;66401;42.016;21.454;2023-02-15T01:41:51;29.10;;;15.90;;
62788;SDS011;66401;42.016;21.454;2023-02-15T01:47:27;24.97;;;13.23;;
62788;SDS011;66401;42.016;21.454;2023-02-15T01:52:43;25.60;;;13.47;;
62788;SDS011;66401;42.016;21.454;2023-02-15T01:55:15;22.60;;;13.53;;
62788;SDS011;66401;42.016;21.454;2023-02-15T01:57:41;24.63;;;13.57;;
62788;SDS011;66401;42.016;21.454;2023-02-15T02:00:08;25.23;;;13.63;;
62788;SDS011;66401;42.016;21.454;2023-02-15T02:02:34;24.97;;;13.60;;
62788;SDS011;66401;42.016;21.454;2023-02-15T02:05:01;25.43;;;12.97;;
62788;SDS011;66401;42.016;21.454;2023-02-15T02:07:32;24.43;;;12.70;;
62788;SDS011;66401;42.016;21.454;2023-02-15T02:10:01;24.87;;;13.13;;
62788;SDS011;66401;42.016;21.454;2023-02-15T02:12:28;25.80;;;13.63;;
62788;SDS011;66401;42.016;21.454;2023-02-15T02:14:54;25.90;;;13.67;;
62788;SDS011;66401;42.016;21.454;2023-02-15T02:17:32;25.43;;;13.23;;
62788;SDS011;66401;42.016;21.454;2023-02-15T02:28:33;21.93;;;11.60;;
62788;SDS011;66401;42.016;21.454;2023-02-15T02:36:40;21.13;;;11.43;;
62788;SDS011;66401;42.016;21.454;2023-02-15T02:42:06;23.00;;;12.93;;
62788;SDS011;66401;42.016;21.454;2023-02-15T02:44:43;20.80;;;12.87;;
62788;SDS011;66401;42.016;21.454;2023-02-15T02:47:17;21.17;;;12.60;;
62788;SDS011;66401;42.016;21.454;2023-02-15T02:52:54;17.63;;;11.20;;
62788;SDS011;66401;42.016;21.454;2023-02-15T02:57:57;20.07;;;12.60;;
62788;SDS011;66401;42.016;21.454;2023-02-15T03:04:11;25.27;;;13.40;;
62788;SDS011;66401;42.016;21.454;2023-02-15T03:09:15;28.20;;;14.33;;
62788;SDS011;66401;42.016;21.454;2023-02-15T03:11:48;29.63;;;14.63;;
62788;SDS011;66401;42.016;21.454;2023-02-15T03:14:14;24.30;;;13.77;;
62788;SDS011;66401;42.016;21.454;2023-02-15T03:16:42;26.43;;;13.63;;
62788;SDS011;66401;42.016;21.454;2023-02-15T03:19:12;21.97;;;12.00;;
62788;SDS011;66401;42.016;21.454;2023-02-15T03:24:24;20.77;;;11.93;;
62788;SDS011;66401;42.016;21.454;2023-02-15T03:26:53;21.53;;;11.20;;
62788;SDS011;66401;42.016;21.454;2023-02-15T03:29:24;19.53;;;10.87;;
62788;SDS011;66401;42.016;21.454;2023-02-15T03:32:02;18.53;;;11.20;;
62788;SDS011;66401;42.016;21.454;2023-02-15T03:34:32;18.83;;;10.43;;
62788;SDS011;66401;42.016;21.454;2023-02-15T03:40:04;25.13;;;11.83;;
62788;SDS011;66401;42.016;21.454;2023-02-15T03:43:25;17.63;;;10.80;;
62788;SDS011;66401;42.016;21.454;2023-02-15T03:45:56;19.73;;;10.87;;
62788;SDS011;66401;42.016;21.454;2023-02-15T03:48:31;17.70;;;10.57;;
62788;SDS011;66401;42.016;21.454;2023-02-15T03:51:07;17.93;;;11.57;;
62788;SDS011;66401;42.016;21.454;2023-02-15T03:53:56;19.27;;;10.53;;
62788;SDS011;66401;42.016;21.454;2023-02-15T03:56:24;17.80;;;10.40;;
62788;SDS011;66401;42.016;21.454;2023-02-15T03:58:49;17.83;;;11.20;;
62788;SDS011;66401;42.016;21.454;2023-02-15T04:01:38;20.87;;;11.13;;
62788;SDS011;66401;42.016;21.454;2023-02-15T04:06:58;28.13;;;11.53;;
62788;SDS011;66401;42.016;21.454;2023-02-15T04:09:24;19.90;;;11.43;;
62788;SDS011;66401;42.016;21.454;2023-02-15T04:12:08;21.73;;;12.13;;
62788;SDS011;66401;42.016;21.454;2023-02-15T04:14:33;23.10;;;12.20;;
62788;SDS011;66401;42.016;21.454;2023-02-15T04:17:17;22.50;;;13.13;;
62788;SDS011;66401;42.016;21.454;2023-02-15T04:19:43;29.13;;;14.67;;
62788;SDS011;66401;42.016;21.454;2023-02-15T04:22:27;24.23;;;12.83;;
62788;SDS011;66401;42.016;21.454;2023-02-15T04:25:11;27.23;;;14.53;;
62788;SDS011;66401;42.016;21.454;2023-02-15T04:27:40;23.10;;;11.83;;
62788;SDS011;66401;42.016;21.454;2023-02-15T04:30:07;26.73;;;13.10;;
62788;SDS011;66401;42.016;21.454;2023-02-15T04:32:35;20.23;;;11.20;;
62788;SDS011;66401;42.016;21.454;2023-02-15T04:35:01;23.43;;;12.37;;
62788;SDS011;66401;42.016;21.454;2023-02-15T04:37:27;26.47;;;12.73;;
62788;SDS011;66401;42.016;21.454;2023-02-15T04:39:53;19.40;;;11.10;;
62788;SDS011;66401;42.016;21.454;2023-02-15T04:42:19;22.43;;;12.87;;
62788;SDS011;66401;42.016;21.454;2023-02-15T04:44:44;19.33;;;11.20;;
62788;SDS011;66401;42.016;21.454;2023-02-15T04:47:10;23.00;;;11.80;;
62788;SDS011;66401;42.016;21.454;2023-02-15T04:49:35;18.67;;;10.60;;
62788;SDS011;66401;42.016;21.454;2023-02-15T04:52:01;22.00;;;10.63;;
62788;SDS011;66401;42.016;21.454;2023-02-15T04:54:27;25.33;;;11.77;;
62788;SDS011;66401;42.016;21.454;2023-02-15T04:56:53;22.10;;;11.40;;
62788;SDS011;66401;42.016;21.454;2023-02-15T04:59:19;24.23;;;11.43;;
62788;SDS011;66401;42.016;21.454;2023-02-15T05:01:44;21.63;;;11.67;;
62788;SDS011;66401;42.016;21.454;2023-02-15T05:04:10;19.03;;;11.90;;
62788;SDS011;66401;42.016;21.454;2023-02-15T05:06:35;27.20;;;14.23;;
62788;SDS011;66401;42.016;21.454;2023-02-15T05:09:01;20.83;;;12.63;;
62788;SDS011;66401;42.016;21.454;2023-02-15T05:11:27;25.07;;;13.10;;
62788;SDS011;66401;42.016;21.454;2023-02-15T05:13:52;29.10;;;14.73;;
62788;SDS011;66401;42.016;21.454;2023-02-15T05:16:18;22.73;;;14.03;;
62788;SDS011;66401;42.016;21.454;2023-02-15T05:18:44;23.60;;;12.90;;
62788;SDS011;66401;42.016;21.454;2023-02-15T05:21:09;25.30;;;14.67;;
62788;SDS011;66401;42.016;21.454;2023-02-15T05:23:35;27.20;;;14.50;;
62788;SDS011;66401;42.016;21.454;2023-02-15T05:26:01;27.23;;;14.47;;
62788;SDS011;66401;42.016;21.454;2023-02-15T05:28:45;25.23;;;14.53;;
62788;SDS011;66401;42.016;21.454;2023-02-15T05:31:12;24.17;;;14.33;;
62788;SDS011;66401;42.016;21.454;2023-02-15T05:33:42;21.70;;;13.37;;
62788;SDS011;66401;42.016;21.454;2023-02-15T05:36:09;22.47;;;13.57;;
62788;SDS011;66401;42.016;21.454;2023-02-15T05:38:35;24.77;;;12.53;;
62788;SDS011;66401;42.016;21.454;2023-02-15T05:41:05;19.53;;;10.53;;
62788;SDS011;66401;42.016;21.454;2023-02-15T05:43:32;21.47;;;12.70;;
62788;SDS011;66401;42.016;21.454;2023-02-15T05:45:58;20.40;;;12.83;;
62788;SDS011;66401;42.016;21.454;2023-02-15T05:48:24;20.83;;;12.20;;
62788;SDS011;66401;42.016;21.454;2023-02-15T05:53:31;22.60;;;12.07;;
62788;SDS011;66401;42.016;21.454;2023-02-15T05:55:58;22.23;;;12.17;;
62788;SDS011;66401;42.016;21.454;2023-02-15T05:58:25;22.00;;;11.90;;
62788;SDS011;66401;42.016;21.454;2023-02-15T06:00:52;21.10;;;12.13;;
62788;SDS011;66401;42.016;21.454;2023-02-15T06:03:17;23.97;;;14.40;;
62788;SDS011;66401;42.016;21.454;2023-02-15T06:05:43;33.97;;;19.90;;
62788;SDS011;66401;42.016;21.454;2023-02-15T06:08:08;34.97;;;19.87;;
62788;SDS011;66401;42.016;21.454;2023-02-15T06:10:34;31.87;;;18.37;;
62788;SDS011;66401;42.016;21.454;2023-02-15T06:13:00;35.63;;;18.77;;
62788;SDS011;66401;42.016;21.454;2023-02-15T06:15:25;28.57;;;17.67;;
62788;SDS011;66401;42.016;21.454;2023-02-15T06:17:51;31.33;;;16.47;;
62788;SDS011;66401;42.016;21.454;2023-02-15T06:20:16;29.60;;;15.73;;
62788;SDS011;66401;42.016;21.454;2023-02-15T06:22:42;29.47;;;15.50;;
62788;SDS011;66401;42.016;21.454;2023-02-15T06:25:07;35.20;;;17.73;;
62788;SDS011;66401;42.016;21.454;2023-02-15T06:27:35;35.80;;;20.90;;
62788;SDS011;66401;42.016;21.454;2023-02-15T06:30:01;39.37;;;21.57;;
62788;SDS011;66401;42.016;21.454;2023-02-15T06:32:26;49.97;;;23.90;;
62788;SDS011;66401;42.016;21.454;2023-02-15T06:34:52;40.27;;;22.50;;
62788;SDS011;66401;42.016;21.454;2023-02-15T06:37:17;46.73;;;24.43;;
62788;SDS011;66401;42.016;21.454;2023-02-15T06:39:43;46.23;;;21.97;;
62788;SDS011;66401;42.016;21.454;2023-02-15T06:42:09;40.90;;;20.40;;
62788;SDS011;66401;42.016;21.454;2023-02-15T06:44:34;31.63;;;17.13;;
62788;SDS011;66401;42.016;21.454;2023-02-15T06:47:00;25.97;;;14.93;;
62788;SDS011;66401;42.016;21.454;2023-02-15T06:49:25;28.30;;;15.17;;
62788;SDS011;66401;42.016;21.454;2023-02-15T06:51:51;29.33;;;16.40;;
62788;SDS011;66401;42.016;21.454;2023-02-15T06:54:16;25.43;;;14.27;;
62788;SDS011;66401;42.016;21.454;2023-02-15T06:56:42;22.30;;;13.37;;
62788;SDS011;66401;42.016;21.454;2023-02-15T06:59:08;23.40;;;13.57;;
62788;SDS011;66401;42.016;21.454;2023-02-15T07:01:34;25.17;;;14.10;;
62788;SDS011;66401;42.016;21.454;2023-02-15T07:04:01;29.03;;;15.10;;
62788;SDS011;66401;42.016;21.454;2023-02-15T07:06:30;33.73;;;15.33;;
62788;SDS011;66401;42.016;21.454;2023-02-15T07:08:57;22.67;;;13.77;;
62788;SDS011;66401;42.016;21.454;2023-02-15T07:11:22;21.67;;;13.67;;
62788;SDS011;66401;42.016;21.454;2023-02-15T07:14:06;23.17;;;13.53;;
62788;SDS011;66401;42.016;21.454;2023-02-15T07:16:32;21.93;;;12.30;;
62788;SDS011;66401;42.016;21.454;2023-02-15T07:18:57;23.13;;;12.73;;
62788;SDS011;66401;42.016;21.454;2023-02-15T07:21:23;23.47;;;14.73;;
62788;SDS011;66401;42.016;21.454;2023-02-15T07:23:49;28.63;;;15.30;;
62788;SDS011;66401;42.016;21.454;2023-02-15T07:26:14;29.50;;;17.27;;
62788;SDS011;66401;42.016;21.454;2023-02-15T07:28:40;25.47;;;15.40;;
62788;SDS011;66401;42.016;21.454;2023-02-15T07:31:06;22.20;;;13.20;;
62788;SDS011;66401;42.016;21.454;2023-02-15T07:33:31;19.77;;;12.03;;
62788;SDS011;66401;42.016;21.454;2023-02-15T07:35:58;22.07;;;13.30;;
62788;SDS011;66401;42.016;21.454;2023-02-15T07:38:27;21.73;;;12.50;;
62788;SDS011;66401;42.016;21.454;2023-02-15T07:40:59;21.93;;;11.00;;
62788;SDS011;66401;42.016;21.454;2023-02-15T07:43:25;17.00;;;10.57;;
62788;SDS011;66401;42.016;21.454;2023-02-15T07:45:51;18.33;;;10.20;;
62788;SDS011;66401;42.016;21.454;2023-02-15T07:48:17;19.67;;;10.40;;
62788;SDS011;66401;42.016;21.454;2023-02-15T07:50:42;17.37;;;9.93;;
62788;SDS011;66401;42.016;21.454;2023-02-15T07:53:08;14.30;;;8.93;;
62788;SDS011;66401;42.016;21.454;2023-02-15T07:55:34;16.30;;;8.77;;
62788;SDS011;66401;42.016;21.454;2023-02-15T07:57:59;14.70;;;10.47;;
62788;SDS011;66401;42.016;21.454;2023-02-15T08:00:25;17.37;;;10.77;;
62788;SDS011;66401;42.016;21.454;2023-02-15T08:02:52;18.63;;;11.43;;
62788;SDS011;66401;42.016;21.454;2023-02-15T08:05:41;24.80;;;13.50;;
62788;SDS011;66401;42.016;21.454;2023-02-15T08:08:09;21.73;;;13.20;;
62788;SDS011;66401;42.016;21.454;2023-02-15T08:11:05;20.40;;;13.73;;
62788;SDS011;66401;42.016;21.454;2023-02-15T08:13:58;28.53;;;14.57;;
62788;SDS011;66401;42.016;21.454;2023-02-15T08:19:01;20.63;;;14.53;;
62788;SDS011;66401;42.016;21.454;2023-02-15T08:21:32;30.43;;;18.17;;
62788;SDS011;66401;42.016;21.454;2023-02-15T08:23:58;24.47;;;15.97;;
62788;SDS011;66401;42.016;21.454;2023-02-15T08:26:25;25.33;;;15.80;;
62788;SDS011;66401;42.016;21.454;2023-02-15T08:28:52;22.37;;;15.63;;
62788;SDS011;66401;42.016;21.454;2023-02-15T08:31:17;27.63;;;17.30;;
62788;SDS011;66401;42.016;21.454;2023-02-15T08:33:44;24.03;;;15.67;;
62788;SDS011;66401;42.016;21.454;2023-02-15T08:36:12;20.27;;;15.03;;
62788;SDS011;66401;42.016;21.454;2023-02-15T08:38:40;17.27;;;11.80;;
62788;SDS011;66401;42.016;21.454;2023-02-15T08:41:10;16.13;;;11.37;;
62788;SDS011;66401;42.016;21.454;2023-02-15T08:43:42;19.53;;;15.83;;
62788;SDS011;66401;42.016;21.454;2023-02-15T08:46:09;17.13;;;13.33;;
62788;SDS011;66401;42.016;21.454;2023-02-15T08:48:36;15.90;;;13.13;;
62788;SDS011;66401;42.016;21.454;2023-02-15T08:51:08;15.40;;;11.87;;
62788;SDS011;66401;42.016;21.454;2023-02-15T08:53:37;15.77;;;12.47;;
62788;SDS011;66401;42.016;21.454;2023-02-15T08:56:03;15.37;;;12.00;;
62788;SDS011;66401;42.016;21.454;2023-02-15T08:58:32;14.60;;;12.63;;
62788;SDS011;66401;42.016;21.454;2023-02-15T09:00:58;15.10;;;11.63;;
62788;SDS011;66401;42.016;21.454;2023-02-15T09:03:24;14.70;;;11.00;;
62788;SDS011;66401;42.016;21.454;2023-02-15T09:05:49;14.27;;;10.63;;
62788;SDS011;66401;42.016;21.454;2023-02-15T09:08:15;12.63;;;9.77;;
62788;SDS011;66401;42.016;21.454;2023-02-15T09:10:41;10.53;;;9.43;;
62788;SDS011;66401;42.016;21.454;2023-02-15T09:13:07;9.93;;;8.33;;
62788;SDS011;66401;42.016;21.454;2023-02-15T09:15:32;11.67;;;8.40;;
62788;SDS011;66401;42.016;21.454;2023-02-15T09:17:58;13.27;;;8.80;;
62788;SDS011;66401;42.016;21.454;2023-02-15T09:20:31;13.87;;;9.80;;
62788;SDS011;66401;42.016;21.454;2023-02-15T09:23:00;13.70;;;8.97;;
62788;SDS011;66401;42.016;21.454;2023-02-15T09:25:26;9.00;;;7.70;;
62788;SDS011;66401;42.016;21.454;2023-02-15T09:27:52;10.67;;;8.67;;
62788;SDS011;66401;42.016;21.454;2023-02-15T09:30:18;10.77;;;8.30;;
62788;SDS011;66401;42.016;21.454;2023-02-15T09:32:43;11.00;;;8.47;;
62788;SDS011;66401;42.016;21.454;2023-02-15T09:35:11;11.33;;;8.67;;
62788;SDS011;66401;42.016;21.454;2023-02-15T09:37:37;12.07;;;9.30;;
62788;SDS011;66401;42.016;21.454;2023-02-15T09:40:03;10.23;;;8.73;;
62788;SDS011;66401;42.016;21.454;2023-02-15T09:45:28;9.33;;;8.23;;
62788;SDS011;66401;42.016;21.454;2023-02-15T09:48:14;8.50;;;7.47;;
62788;SDS011;66401;42.016;21.454;2023-02-15T09:57:00;9.90;;;7.27;;
62788;SDS011;66401;42.016;21.454;2023-02-15T09:59:30;8.13;;;7.20;;
62788;SDS011;66401;42.016;21.454;2023-02-15T10:05:21;9.00;;;8.10;;
62788;SDS011;66401;42.016;21.454;2023-02-15T10:10:39;8.67;;;7.77;;
62788;SDS011;66401;42.016;21.454;2023-02-15T10:13:37;8.87;;;7.90;;
62788;SDS011;66401;42.016;21.454;2023-02-15T10:19:00;9.43;;;8.17;;
62788;SDS011;66401;42.016;21.454;2023-02-15T10:22:14;9.53;;;7.87;;
62788;SDS011;66401;42.016;21.454;2023-02-15T10:25:06;9.07;;;7.90;;
62788;SDS011;66401;42.016;21.454;2023-02-15T10:27:38;10.70;;;8.70;;
62788;SDS011;66401;42.016;21.454;2023-02-15T10:30:19;9.37;;;8.37;;
62788;SDS011;66401;42.016;21.454;2023-02-15T10:33:32;9.80;;;8.43;;
62788;SDS011;66401;42.016;21.454;2023-02-15T10:52:40;9.63;;;8.63;;
62788;SDS011;66401;42.016;21.454;2023-02-15T11:01:25;9.80;;;8.80;;
62788;SDS011;66401;42.016;21.454;2023-02-15T11:06:53;10.13;;;9.10;;
62788;SDS011;66401;42.016;21.454;2023-02-15T11:09:23;10.20;;;9.10;;
62788;SDS011;66401;42.016;21.454;2023-02-15T11:11:55;10.73;;;9.57;;
62788;SDS011;66401;42.016;21.454;2023-02-15T11:17:16;12.27;;;10.03;;
62788;SDS011;66401;42.016;21.454;2023-02-15T11:22:30;10.73;;;9.43;;
62788;SDS011;66401;42.016;21.454;2023-02-15T11:24:58;10.00;;;9.00;;
62788;SDS011;66401;42.016;21.454;2023-02-15T11:27:27;11.13;;;9.77;;
62788;SDS011;66401;42.016;21.454;2023-02-15T11:32:38;11.17;;;9.80;;
62788;SDS011;66401;42.016;21.454;2023-02-15T11:42:44;11.37;;;9.17;;
62788;SDS011;66401;42.016;21.454;2023-02-15T11:47:54;13.47;;;9.03;;
62788;SDS011;66401;42.016;21.454;2023-02-15T11:50:25;10.40;;;9.30;;
62788;SDS011;66401;42.016;21.454;2023-02-15T11:52:58;10.70;;;9.33;;
62788;SDS011;66401;42.016;21.454;2023-02-15T11:55:31;10.27;;;8.93;;
62788;SDS011;66401;42.016;21.454;2023-02-15T12:00:52;10.37;;;9.37;;
62788;SDS011;66401;42.016;21.454;2023-02-15T12:06:34;10.27;;;9.17;;
62788;SDS011;66401;42.016;21.454;2023-02-15T12:11:39;10.43;;;9.33;;
62788;SDS011;66401;42.016;21.454;2023-02-15T12:14:07;10.80;;;9.43;;
62788;SDS011;66401;42.016;21.454;2023-02-15T12:19:59;10.90;;;9.63;;
62788;SDS011;66401;42.016;21.454;2023-02-15T12:22:05;11.80;;;9.73;;
62788;SDS011;66401;42.016;21.454;2023-02-15T12:24:45;11.17;;;9.13;;
62788;SDS011;66401;42.016;21.454;2023-02-15T12:27:19;10.20;;;9.10;;
62788;SDS011;66401;42.016;21.454;2023-02-15T12:30:07;11.47;;;10.23;;
62788;SDS011;66401;42.016;21.454;2023-02-15T12:32:52;14.17;;;11.33;;
62788;SDS011;66401;42.016;21.454;2023-02-15T12:35:31;12.53;;;9.13;;
62788;SDS011;66401;42.016;21.454;2023-02-15T12:40:45;9.60;;;8.40;;
62788;SDS011;66401;42.016;21.454;2023-02-15T12:43:27;10.80;;;9.37;;
62788;SDS011;66401;42.016;21.454;2023-02-15T12:46:13;10.70;;;8.33;;
62788;SDS011;66401;42.016;21.454;2023-02-15T12:48:46;11.03;;;8.60;;
62788;SDS011;66401;42.016;21.454;2023-02-15T12:51:13;11.87;;;9.27;;
62788;SDS011;66401;42.016;21.454;2023-02-15T12:53:40;12.47;;;9.33;;
62788;SDS011;66401;42.016;21.454;2023-02-15T12:56:07;13.07;;;9.27;;
62788;SDS011;66401;42.016;21.454;2023-02-15T12:58:38;13.07;;;9.07;;
62788;SDS011;66401;42.016;21.454;2023-02-15T13:03:33;12.40;;;10.60;;
62788;SDS011;66401;42.016;21.454;2023-02-15T13:06:00;15.27;;;11.67;;
62788;SDS011;66401;42.016;21.454;2023-02-15T13:11:10;13.77;;;10.23;;
62788;SDS011;66401;42.016;21.454;2023-02-15T13:16:38;13.30;;;10.37;;
62788;SDS011;66401;42.016;21.454;2023-02-15T13:19:18;16.43;;;11.67;;
62788;SDS011;66401;42.016;21.454;2023-02-15T13:21:50;13.33;;;11.00;;
62788;SDS011;66401;42.016;21.454;2023-02-15T13:24:19;14.20;;;11.20;;
62788;SDS011;66401;42.016;21.454;2023-02-15T13:26:49;19.50;;;12.90;;
62788;SDS011;66401;42.016;21.454;2023-02-15T13:31:56;18.13;;;13.83;;
62788;SDS011;66401;42.016;21.454;2023-02-15T13:34:28;21.00;;;14.07;;
62788;SDS011;66401;42.016;21.454;2023-02-15T13:37:02;18.50;;;13.67;;
62788;SDS011;66401;42.016;21.454;2023-02-15T13:40:06;18.23;;;12.87;;
62788;SDS011;66401;42.016;21.454;2023-02-15T13:42:38;19.90;;;13.33;;
62788;SDS011;66401;42.016;21.454;2023-02-15T14:07:55;17.73;;;12.17;;
62788;SDS011;66401;42.016;21.454;2023-02-15T14:10:39;16.27;;;11.30;;
62788;SDS011;66401;42.016;21.454;2023-02-15T14:16:26;15.67;;;11.37;;
62788;SDS011;66401;42.016;21.454;2023-02-15T14:19:16;20.00;;;11.67;;
62788;SDS011;66401;42.016;21.454;2023-02-15T14:26:40;16.53;;;11.27;;
62788;SDS011;66401;42.016;21.454;2023-02-15T14:32:19;14.53;;;10.97;;
62788;SDS011;66401;42.016;21.454;2023-02-15T14:34:59;15.83;;;11.17;;
62788;SDS011;66401;42.016;21.454;2023-02-15T14:43:09;16.87;;;10.40;;
62788;SDS011;66401;42.016;21.454;2023-02-15T14:45:55;15.17;;;11.13;;
62788;SDS011;66401;42.016;21.454;2023-02-15T14:48:30;16.37;;;11.60;;
62788;SDS011;66401;42.016;21.454;2023-02-15T14:50:59;18.80;;;13.07;;
62788;SDS011;66401;42.016;21.454;2023-02-15T14:58:35;21.00;;;13.57;;
62788;SDS011;66401;42.016;21.454;2023-02-15T15:01:27;17.97;;;12.10;;
62788;SDS011;66401;42.016;21.454;2023-02-15T15:03:54;22.23;;;13.43;;
62788;SDS011;66401;42.016;21.454;2023-02-15T15:06:27;21.30;;;12.97;;
62788;SDS011;66401;42.016;21.454;2023-02-15T15:08:58;18.43;;;13.13;;
62788;SDS011;66401;42.016;21.454;2023-02-15T15:11:45;22.40;;;13.33;;
62788;SDS011;66401;42.016;21.454;2023-02-15T15:17:11;20.70;;;12.57;;
62788;SDS011;66401;42.016;21.454;2023-02-15T15:20:02;23.00;;;14.43;;
62788;SDS011;66401;42.016;21.454;2023-02-15T15:22:32;24.00;;;14.23;;
62788;SDS011;66401;42.016;21.454;2023-02-15T15:27:58;22.00;;;13.73;;
62788;SDS011;66401;42.016;21.454;2023-02-15T15:41:54;22.50;;;14.60;;
62788;SDS011;66401;42.016;21.454;2023-02-15T15:47:42;24.73;;;14.90;;
62788;SDS011;66401;42.016;21.454;2023-02-15T15:50:20;25.90;;;15.37;;
62788;SDS011;66401;42.016;21.454;2023-02-15T15:52:55;22.37;;;15.60;;
62788;SDS011;66401;42.016;21.454;2023-02-15T15:55:27;23.30;;;14.93;;
62788;SDS011;66401;42.016;21.454;2023-02-15T15:58:05;26.37;;;16.20;;
62788;SDS011;66401;42.016;21.454;2023-02-15T16:00:34;27.37;;;16.27;;
62788;SDS011;66401;42.016;21.454;2023-02-15T16:03:00;24.73;;;15.87;;
62788;SDS011;66401;42.016;21.454;2023-02-15T16:05:34;27.60;;;16.20;;
62788;SDS011;66401;42.016;21.454;2023-02-15T16:08:01;24.27;;;16.03;;
62788;SDS011;66401;42.016;21.454;2023-02-15T16:10:27;29.70;;;15.23;;
62788;SDS011;66401;42.016;21.454;2023-02-15T16:13:06;28.30;;;14.67;;
62788;SDS011;66401;42.016;21.454;2023-02-15T16:15:51;25.33;;;16.37;;
62788;SDS011;66401;42.016;21.454;2023-02-15T16:18:20;27.20;;;15.87;;
62788;SDS011;66401;42.016;21.454;2023-02-15T16:21:04;28.47;;;16.23;;
62788;SDS011;66401;42.016;21.454;2023-02-15T16:28:58;28.03;;;16.73;;
62788;SDS011;66401;42.016;21.454;2023-02-15T16:31:23;31.10;;;17.30;;
62788;SDS011;66401;42.016;21.454;2023-02-15T16:33:51;28.63;;;17.33;;
62788;SDS011;66401;42.016;21.454;2023-02-15T16:36:34;27.40;;;17.07;;
62788;SDS011;66401;42.016;21.454;2023-02-15T16:39:05;26.57;;;16.50;;
62788;SDS011;66401;42.016;21.454;2023-02-15T16:41:41;31.53;;;18.10;;
62788;SDS011;66401;42.016;21.454;2023-02-15T16:44:17;35.13;;;18.37;;
62788;SDS011;66401;42.016;21.454;2023-02-15T16:46:49;33.93;;;19.80;;
62788;SDS011;66401;42.016;21.454;2023-02-15T16:51:43;34.97;;;18.93;;
62788;SDS011;66401;42.016;21.454;2023-02-15T16:54:17;31.17;;;17.30;;
62788;SDS011;66401;42.016;21.454;2023-02-15T16:56:46;36.17;;;20.10;;
62788;SDS011;66401;42.016;21.454;2023-02-15T17:02:25;37.37;;;20.37;;
62788;SDS011;66401;42.016;21.454;2023-02-15T17:10:40;31.97;;;18.73;;
62788;SDS011;66401;42.016;21.454;2023-02-15T17:13:11;30.37;;;18.53;;
62788;SDS011;66401;42.016;21.454;2023-02-15T17:15:39;33.70;;;19.67;;
62788;SDS011;66401;42.016;21.454;2023-02-15T17:18:12;35.80;;;18.83;;
62788;SDS011;66401;42.016;21.454;2023-02-15T17:20:45;31.47;;;18.50;;
62788;SDS011;66401;42.016;21.454;2023-02-15T17:25:58;34.13;;;18.63;;
62788;SDS011;66401;42.016;21.454;2023-02-15T17:28:28;28.90;;;17.93;;
62788;SDS011;66401;42.016;21.454;2023-02-15T17:30:56;33.90;;;18.47;;
62788;SDS011;66401;42.016;21.454;2023-02-15T17:33:25;32.47;;;18.63;;
62788;SDS011;66401;42.016;21.454;2023-02-15T17:36:04;29.60;;;18.10;;
62788;SDS011;66401;42.016;21.454;2023-02-15T17:38:37;30.53;;;18.53;;
62788;SDS011;66401;42.016;21.454;2023-02-15T17:41:04;33.63;;;17.80;;
62788;SDS011;66401;42.016;21.454;2023-02-15T17:43:30;26.87;;;16.57;;
62788;SDS011;66401;42.016;21.454;2023-02-15T17:45:56;29.03;;;16.17;;
62788;SDS011;66401;42.016;21.454;2023-02-15T17:48:33;31.33;;;17.37;;
62788;SDS011;66401;42.016;21.454;2023-02-15T17:51:01;29.27;;;16.43;;
62788;SDS011;66401;42.016;21.454;2023-02-15T17:53:28;25.77;;;16.00;;
62788;SDS011;66401;42.016;21.454;2023-02-15T17:55:54;32.83;;;17.53;;
62788;SDS011;66401;42.016;21.454;2023-02-15T17:58:19;26.77;;;16.13;;
62788;SDS011;66401;42.016;21.454;2023-02-15T18:00:46;29.90;;;16.83;;
62788;SDS011;66401;42.016;21.454;2023-02-15T18:06:26;30.63;;;16.00;;
62788;SDS011;66401;42.016;21.454;2023-02-15T18:09:11;27.13;;;16.17;;
62788;SDS011;66401;42.016;21.454;2023-02-15T18:11:59;26.73;;;15.87;;
62788;SDS011;66401;42.016;21.454;2023-02-15T18:14:24;27.77;;;15.97;;